Historyczne dane pomiarowe

Dodano dane terminowe – wersja testowa.

Dane z okresu 1951-2019

Wersja bazy: 1.34 [2019-03-16, lista zmian], aktualizacja planowana na 2019-04-15

Dane meteo z obszaru Polski uzyskane na podstawie danych udostępnionych przez Instytut Meteorologii i Gospodarki Wodnej – Państwowy Instytut Badawczy.

 

Wybierz Datę:    

       

TemperaturaWilgotnośćZachmurzenieWiatrCiśnienieWidzialnośćZjawiska
 Data    tng td wb rh cc ccl cl cm ch dir g1 g2 mslp ppp      
1999-07-18 00:00:00 4.7--- 3.2 4.091wxwx2wx--- 806.1 0.0---wx
1999-07-18 01:00:00 4.8--- 3.1 4.089wxwx3wx--- 805.9----wx
1999-07-18 02:00:00 4.6--- 2.7 3.787wxwxwx3wx--- 805.6----wx
1999-07-18 03:00:00 4.4--- 3.2 3.892wxwxwx3wx--- 805.5----wx
1999-07-18 04:00:00 5.4--- 1.5 3.675wxwxwx3wx--- 805.7----wx
1999-07-18 05:00:00 6.2--- 2.1 4.375wxwxwx3wx--- 805.7----wx
1999-07-18 06:00:00 6.4--- 3.8 5.284wxwxwxwx3wx--- 806.2 0.0---wx
1999-07-18 07:00:00 7.2--- 5.0 6.186wxwxwxwx3wx--- 806.3----wx
1999-07-18 08:00:00 8.5--- 5.5 6.981wxwxwxwx3wx--- 806.4----wx
1999-07-18 09:00:00 9.9--- 4.6 7.270wxwxwxwx2wx--- 806.5----wx
1999-07-18 10:00:00 10.1--- 3.8 7.065wxwxwxwx3wx--- 806.6----wx
1999-07-18 11:00:00 11.0--- 3.1 7.158wxwxwxwxwx2wx--- 806.5----wx
1999-07-18 12:00:00 10.4--- 3.6 7.163wxwxwxwxwx4wx--- 806.5 0.0---wx
1999-07-18 13:00:00 10.7--- 3.8 7.262wxwxwx2wx--- 806.4----wx
1999-07-18 14:00:00 10.0--- 4.1 7.167wxwxwxwxwx2wx--- 806.4----wx
1999-07-18 15:00:00 11.4--- 4.6 7.963wxwxwxwxwx1wx--- 806.5----wx
1999-07-18 16:00:00 11.2--- 3.1 7.257wxwxwxwxwx2wx--- 806.3----wx
1999-07-18 17:00:00 11.1--- 2.7 7.056wxwxwxwxwx1wx--- 806.5----wx
1999-07-18 18:00:00 10.2--- 3.4 6.963wxwxwxwx1wx--- 806.4 0.0---wx
1999-07-18 19:00:00 8.3--- 3.2 5.970wxwxwx1wx--- 806.4----wx
1999-07-18 20:00:00 7.9--- 1.9 5.166wxwxwx0wx--- 806.6----wx
1999-07-18 21:00:00 7.5--- 2.3 5.169wxwx0wx--- 806.7----wx
1999-07-18 22:00:00 7.2--- 1.7 4.768wxwx1wx--- 806.5----wx
1999-07-18 23:00:00 6.8--- 2.9 4.975wxwx0wx--- 806.5----wx

 

Źródłem pochodzenia danych jest Instytut Meteorologii i Gospodarki Wodnej – Państwowy Instytut Badawczy. Dane Instytutu Meteorologii i Gospodarki Wodnej – Państwowego Instytutu Badawczego zostały przetworzone.

Dane źródłowe można odnaleźć na stronie https://dane.imgw.pl